createdAt,value
2022-09-18T00:00:16.528Z,8.40
2022-09-18T00:02:44.699Z,8.40
2022-09-18T00:05:12.803Z,8.40
2022-09-18T00:07:41.100Z,8.40
2022-09-18T00:10:10.080Z,8.30
2022-09-18T00:12:38.097Z,8.30
2022-09-18T00:15:07.773Z,8.30
2022-09-18T00:17:38.074Z,8.20
2022-09-18T00:20:07.611Z,8.20
2022-09-18T00:22:35.902Z,8.20
2022-09-18T00:25:03.923Z,8.20
2022-09-18T00:27:31.911Z,8.20
2022-09-18T00:29:59.935Z,8.30
2022-09-18T00:32:28.012Z,8.40
2022-09-18T00:34:57.371Z,8.40
2022-09-18T00:37:25.439Z,8.40
2022-09-18T00:39:53.499Z,8.40
2022-09-18T00:42:21.681Z,8.40
2022-09-18T00:44:50.172Z,8.40
2022-09-18T00:47:27.183Z,8.50
2022-09-18T00:50:08.039Z,8.50
2022-09-18T00:52:46.537Z,8.60
2022-09-18T00:55:15.820Z,8.60
2022-09-18T00:57:48.840Z,8.60
2022-09-18T01:00:19.222Z,8.60
2022-09-18T01:02:50.023Z,8.60
2022-09-18T01:05:27.481Z,8.70
2022-09-18T01:08:07.633Z,8.70
2022-09-18T01:10:52.062Z,8.80
2022-09-18T01:13:29.717Z,8.90
2022-09-18T01:16:04.832Z,8.90
2022-09-18T01:18:40.063Z,9.00
2022-09-18T01:21:14.230Z,9.00
2022-09-18T01:24:24.064Z,9.10
2022-09-18T01:26:57.522Z,9.10
2022-09-18T01:29:49.656Z,9.10
2022-09-18T01:32:23.453Z,9.10
2022-09-18T01:35:09.918Z,9.20
2022-09-18T01:37:53.541Z,9.10
2022-09-18T01:40:25.792Z,9.20
2022-09-18T01:42:57.323Z,9.20
2022-09-18T01:45:30.747Z,9.20
2022-09-18T01:48:02.532Z,9.20
2022-09-18T01:50:35.135Z,9.20
2022-09-18T01:53:09.103Z,9.20
2022-09-18T01:55:39.767Z,9.20
2022-09-18T01:58:11.110Z,9.20
2022-09-18T02:00:43.386Z,9.10
2022-09-18T02:03:16.828Z,9.10
2022-09-18T02:05:48.511Z,9.10
2022-09-18T02:08:22.859Z,9.20
2022-09-18T02:11:01.105Z,9.20
2022-09-18T02:13:34.086Z,9.20
2022-09-18T02:16:07.871Z,9.20
2022-09-18T02:18:41.766Z,9.20
2022-09-18T02:21:19.109Z,9.30
2022-09-18T02:23:48.125Z,9.30
2022-09-18T02:26:20.244Z,9.30
2022-09-18T02:28:50.387Z,9.30
2022-09-18T02:31:20.036Z,9.30
2022-09-18T02:33:48.408Z,9.30
2022-09-18T02:36:57.630Z,9.30
2022-09-18T02:39:40.464Z,9.30
2022-09-18T02:42:24.529Z,9.30
2022-09-18T02:45:04.134Z,9.30
2022-09-18T02:47:43.927Z,9.30
2022-09-18T02:50:19.300Z,9.30
2022-09-18T02:52:56.029Z,9.30
2022-09-18T02:55:28.387Z,9.30
2022-09-18T02:58:00.354Z,9.30
2022-09-18T03:00:31.763Z,9.30
2022-09-18T03:03:02.934Z,9.40
2022-09-18T03:05:36.093Z,9.40
2022-09-18T03:08:04.391Z,9.40
2022-09-18T03:10:33.060Z,9.40
2022-09-18T03:13:01.258Z,9.40
2022-09-18T03:15:29.316Z,9.40
2022-09-18T03:17:58.874Z,9.40
2022-09-18T03:20:28.393Z,9.40
2022-09-18T03:22:56.511Z,9.40
2022-09-18T03:25:25.026Z,9.50
2022-09-18T03:27:55.960Z,9.50
2022-09-18T03:30:32.502Z,9.50
2022-09-18T03:33:00.623Z,9.50
2022-09-18T03:35:32.187Z,9.40
2022-09-18T03:38:00.231Z,9.40
2022-09-18T03:40:31.629Z,9.40
2022-09-18T03:43:03.592Z,9.50
2022-09-18T03:45:32.621Z,9.50
2022-09-18T03:48:01.997Z,9.50
2022-09-18T03:50:31.428Z,9.50
2022-09-18T03:52:59.729Z,9.50
2022-09-18T03:55:39.785Z,9.50
2022-09-18T03:58:26.549Z,9.50
2022-09-18T04:01:29.752Z,9.60
2022-09-18T04:04:33.251Z,9.50
2022-09-18T04:07:21.815Z,9.50
2022-09-18T04:10:20.502Z,9.50
2022-09-18T04:12:49.262Z,9.50
2022-09-18T04:15:22.572Z,9.50
2022-09-18T04:17:50.581Z,9.60
2022-09-18T04:20:19.136Z,9.60
2022-09-18T04:22:48.508Z,9.60
2022-09-18T04:25:18.236Z,9.60
2022-09-18T04:27:49.176Z,9.60
2022-09-18T04:30:19.145Z,9.70
2022-09-18T04:32:47.174Z,9.70
2022-09-18T04:35:19.110Z,9.70
2022-09-18T04:37:48.492Z,9.60
2022-09-18T04:40:16.615Z,9.60
2022-09-18T04:42:44.759Z,9.60
2022-09-18T04:45:12.990Z,9.60
2022-09-18T04:47:42.005Z,9.60
2022-09-18T04:50:10.975Z,9.60
2022-09-18T04:53:00.314Z,9.60
2022-09-18T04:55:29.108Z,9.60
2022-09-18T04:57:57.620Z,9.60
2022-09-18T05:00:25.630Z,9.60
2022-09-18T05:02:54.069Z,9.70
2022-09-18T05:05:25.729Z,9.70
2022-09-18T05:07:53.940Z,9.70
2022-09-18T05:10:24.968Z,9.70
2022-09-18T05:12:53.060Z,9.70
2022-09-18T05:15:21.276Z,9.80
2022-09-18T05:17:59.747Z,9.80
2022-09-18T05:20:27.815Z,9.80
2022-09-18T05:22:59.990Z,9.90
2022-09-18T05:25:31.037Z,9.90
2022-09-18T05:28:00.504Z,10.00
2022-09-18T05:30:34.016Z,10.10
2022-09-18T05:33:05.026Z,10.20
2022-09-18T05:35:36.125Z,10.20
2022-09-18T05:38:04.459Z,10.20
2022-09-18T05:40:36.301Z,10.20
2022-09-18T05:43:04.700Z,10.20
2022-09-18T05:45:35.269Z,10.20
2022-09-18T05:48:09.157Z,10.20
2022-09-18T05:50:38.351Z,10.20
2022-09-18T05:53:09.120Z,10.20
2022-09-18T05:55:57.316Z,10.20
2022-09-18T05:58:25.357Z,10.10
2022-09-18T06:00:58.768Z,10.10
2022-09-18T06:03:34.763Z,10.10
2022-09-18T06:06:05.263Z,10.10
2022-09-18T06:08:33.253Z,10.10
2022-09-18T06:11:02.981Z,10.10
2022-09-18T06:13:33.028Z,10.10
2022-09-18T06:16:02.129Z,10.10
2022-09-18T06:18:44.805Z,10.10
2022-09-18T06:21:14.905Z,10.10
2022-09-18T06:23:43.808Z,10.10
2022-09-18T06:26:20.692Z,10.10
2022-09-18T06:28:51.537Z,10.00
2022-09-18T06:31:19.841Z,10.00
2022-09-18T06:33:55.633Z,10.00
2022-09-18T06:36:24.715Z,10.00
2022-09-18T06:39:15.802Z,10.00
2022-09-18T06:41:46.866Z,10.00
2022-09-18T06:44:35.075Z,10.10
2022-09-18T06:47:06.532Z,10.20
2022-09-18T06:49:40.531Z,10.30
2022-09-18T06:52:08.715Z,10.30
2022-09-18T06:54:38.449Z,10.30
2022-09-18T06:57:09.394Z,10.40
2022-09-18T06:59:38.648Z,10.40
2022-09-18T07:02:18.647Z,10.40
2022-09-18T07:05:17.824Z,10.40
2022-09-18T07:07:46.858Z,10.40
2022-09-18T07:10:14.979Z,10.40
2022-09-18T07:12:48.865Z,10.30
2022-09-18T07:15:20.729Z,10.40
2022-09-18T07:17:48.788Z,10.40
2022-09-18T07:20:18.590Z,10.40
2022-09-18T07:22:54.077Z,10.40
2022-09-18T07:25:23.160Z,10.40
2022-09-18T07:27:52.931Z,10.50
2022-09-18T07:30:22.370Z,10.50
2022-09-18T07:32:54.398Z,10.50
2022-09-18T07:35:27.409Z,10.60
2022-09-18T07:37:59.260Z,10.60
2022-09-18T07:40:42.646Z,10.60
2022-09-18T07:43:16.209Z,10.60
2022-09-18T07:45:51.535Z,10.60
2022-09-18T07:48:19.615Z,10.60
2022-09-18T07:50:51.632Z,10.70
2022-09-18T07:53:21.244Z,10.70
2022-09-18T07:55:54.022Z,10.80
2022-09-18T07:58:26.849Z,10.70
2022-09-18T08:01:05.906Z,10.70
2022-09-18T08:03:41.640Z,10.70
2022-09-18T08:06:13.004Z,10.60
2022-09-18T08:09:01.492Z,10.60
2022-09-18T08:12:08.480Z,10.80
2022-09-18T08:15:00.709Z,10.80
2022-09-18T08:17:55.146Z,10.60
2022-09-18T08:20:45.429Z,10.60
2022-09-18T08:23:25.529Z,10.60
2022-09-18T08:25:53.560Z,10.70
2022-09-18T08:28:21.905Z,10.70
2022-09-18T08:31:02.457Z,10.70
2022-09-18T08:33:31.048Z,10.60
2022-09-18T08:37:24.429Z,10.60
2022-09-18T08:40:47.414Z,10.70
2022-09-18T08:43:39.939Z,10.80
2022-09-18T08:46:12.097Z,10.90
2022-09-18T08:48:52.016Z,11.10
2022-09-18T08:51:23.948Z,11.10
2022-09-18T08:53:59.315Z,11.30
2022-09-18T08:56:56.008Z,11.60
2022-09-18T08:59:40.630Z,11.60
2022-09-18T09:02:25.195Z,11.40
2022-09-18T09:04:59.218Z,11.40
2022-09-18T09:07:52.896Z,11.50
2022-09-18T09:10:36.062Z,11.60
2022-09-18T09:13:26.246Z,11.70
2022-09-18T09:16:00.300Z,11.80
2022-09-18T09:18:33.311Z,12.00
2022-09-18T09:21:14.026Z,12.10
2022-09-18T09:23:56.232Z,12.40
2022-09-18T09:26:44.324Z,12.60
2022-09-18T09:29:24.876Z,12.80
2022-09-18T09:32:21.361Z,13.10
2022-09-18T09:35:12.526Z,13.00
2022-09-18T09:37:53.042Z,13.10
2022-09-18T09:40:25.712Z,13.40
2022-09-18T09:43:02.231Z,13.10
2022-09-18T09:45:35.861Z,13.10
2022-09-18T09:48:09.324Z,13.00
2022-09-18T09:50:51.315Z,12.90
2022-09-18T09:53:20.194Z,12.80
2022-09-18T09:55:58.909Z,12.70
2022-09-18T09:58:39.554Z,13.00
2022-09-18T10:01:13.387Z,13.20
2022-09-18T10:03:58.205Z,13.00
2022-09-18T10:06:38.892Z,13.10
2022-09-18T10:09:15.236Z,13.00
2022-09-18T10:11:49.074Z,12.80
2022-09-18T10:14:22.294Z,12.70
2022-09-18T10:16:54.039Z,12.80
2022-09-18T10:19:25.101Z,13.00
2022-09-18T10:21:56.000Z,13.10
2022-09-18T10:24:31.017Z,13.10
2022-09-18T10:27:09.367Z,13.00
2022-09-18T10:29:41.901Z,12.90
2022-09-18T10:32:14.122Z,12.90
2022-09-18T10:34:50.192Z,13.20
2022-09-18T10:37:40.653Z,13.50
2022-09-18T10:40:31.380Z,13.80
2022-09-18T10:43:05.223Z,13.50
2022-09-18T10:45:41.639Z,13.30
2022-09-18T10:48:24.777Z,13.00
2022-09-18T10:50:54.794Z,13.00
2022-09-18T10:53:32.810Z,13.00
2022-09-18T10:56:22.831Z,13.20
2022-09-18T10:58:54.311Z,13.20
2022-09-18T11:01:26.367Z,13.20
2022-09-18T11:04:04.224Z,13.10
2022-09-18T11:06:38.526Z,12.90
2022-09-18T11:09:20.552Z,12.60
2022-09-18T11:11:51.405Z,12.60
2022-09-18T11:14:29.376Z,12.50
2022-09-18T11:17:06.576Z,12.50
2022-09-18T11:19:41.083Z,12.40
2022-09-18T11:22:42.674Z,12.50
2022-09-18T11:25:23.341Z,12.60
2022-09-18T11:27:56.485Z,12.70
2022-09-18T11:30:28.818Z,12.80
2022-09-18T11:33:02.728Z,12.80
2022-09-18T11:35:32.825Z,12.80
2022-09-18T11:38:06.368Z,12.70
2022-09-18T11:40:44.997Z,12.50
2022-09-18T11:43:23.420Z,12.60
2022-09-18T11:46:02.485Z,12.80
2022-09-18T11:48:36.637Z,13.10
2022-09-18T11:51:10.968Z,13.10
2022-09-18T11:53:44.860Z,13.00
2022-09-18T11:56:16.773Z,13.00
2022-09-18T11:58:50.105Z,13.00
2022-09-18T12:01:35.820Z,13.00
2022-09-18T12:04:14.305Z,13.10
2022-09-18T12:06:53.684Z,13.40
2022-09-18T12:09:28.637Z,13.70
2022-09-18T12:12:07.032Z,14.00
2022-09-18T12:14:42.845Z,14.00
2022-09-18T12:17:23.732Z,13.80
2022-09-18T12:19:57.695Z,13.70
2022-09-18T12:22:32.814Z,13.60
2022-09-18T12:25:10.770Z,13.60
2022-09-18T12:28:15.822Z,13.50
2022-09-18T12:30:52.141Z,13.70
2022-09-18T12:33:35.018Z,14.00
2022-09-18T12:36:28.002Z,13.70
2022-09-18T12:39:12.802Z,13.80
2022-09-18T12:41:53.624Z,13.80
2022-09-18T12:44:59.814Z,14.10
2022-09-18T12:47:47.865Z,14.20
2022-09-18T12:50:54.320Z,14.10
2022-09-18T12:53:36.153Z,14.10
2022-09-18T12:56:17.061Z,13.80
2022-09-18T12:59:14.947Z,13.70
2022-09-18T13:01:47.755Z,13.60
2022-09-18T13:04:22.174Z,13.80
2022-09-18T13:06:59.352Z,13.80
2022-09-18T13:09:32.900Z,13.90
2022-09-18T13:12:12.615Z,13.80
2022-09-18T13:14:48.837Z,13.80
2022-09-18T13:17:22.014Z,13.80
2022-09-18T13:19:57.252Z,13.90
2022-09-18T13:22:30.552Z,14.10
2022-09-18T13:25:00.545Z,14.20
2022-09-18T13:27:29.961Z,13.90
2022-09-18T13:29:59.947Z,13.90
2022-09-18T13:32:42.892Z,13.90
2022-09-18T13:35:23.281Z,14.00
2022-09-18T13:38:06.292Z,13.90
2022-09-18T13:40:58.453Z,13.70
2022-09-18T13:43:41.671Z,13.40
2022-09-18T13:46:28.113Z,13.30
2022-09-18T13:48:56.921Z,13.40
2022-09-18T13:51:31.142Z,13.50
2022-09-18T13:54:23.056Z,13.60
2022-09-18T13:57:18.322Z,13.60
2022-09-18T13:59:52.933Z,13.40
2022-09-18T14:02:33.463Z,13.30
2022-09-18T14:05:31.375Z,13.30
2022-09-18T14:08:04.202Z,13.30
2022-09-18T14:10:54.889Z,13.30
2022-09-18T14:13:42.524Z,13.40
2022-09-18T14:16:32.427Z,13.50
2022-09-18T14:19:05.457Z,13.60
2022-09-18T14:21:40.216Z,13.70
2022-09-18T14:24:37.876Z,13.60
2022-09-18T14:27:38.128Z,13.60
2022-09-18T14:30:22.797Z,13.50
2022-09-18T14:33:04.448Z,13.30
2022-09-18T14:35:45.229Z,13.30
2022-09-18T14:38:27.448Z,13.10
2022-09-18T14:41:00.095Z,12.90
2022-09-18T14:43:28.625Z,12.80
2022-09-18T14:45:58.312Z,12.80
2022-09-18T14:48:29.501Z,12.60
2022-09-18T14:51:04.377Z,12.50
2022-09-18T14:53:41.090Z,12.40
2022-09-18T14:56:13.111Z,12.40
2022-09-18T14:58:43.493Z,12.40
2022-09-18T15:01:17.729Z,12.30
2022-09-18T15:03:48.785Z,12.30
2022-09-18T15:06:21.062Z,12.20
2022-09-18T15:08:51.945Z,12.10
2022-09-18T15:11:24.272Z,12.00
2022-09-18T15:13:53.809Z,11.90
2022-09-18T15:16:28.013Z,11.80
2022-09-18T15:18:57.411Z,11.70
2022-09-18T15:21:32.817Z,11.70
2022-09-18T15:24:04.897Z,11.60
2022-09-18T15:26:36.581Z,11.60
2022-09-18T15:29:08.482Z,11.50
2022-09-18T15:31:38.058Z,11.40
2022-09-18T15:34:13.042Z,11.30
2022-09-18T15:36:41.133Z,11.10
2022-09-18T15:39:26.576Z,11.10
2022-09-18T15:41:54.819Z,11.00
2022-09-18T15:45:07.924Z,10.90
2022-09-18T15:47:40.213Z,10.80
2022-09-18T15:50:34.968Z,10.80
2022-09-18T15:53:14.362Z,10.70
2022-09-18T15:55:56.011Z,10.70
2022-09-18T15:58:41.055Z,10.70
2022-09-18T16:01:17.327Z,10.60
2022-09-18T16:03:47.423Z,10.60
2022-09-18T16:06:25.816Z,10.60
2022-09-18T16:08:56.676Z,10.60
2022-09-18T16:11:43.282Z,10.60
2022-09-18T16:14:47.225Z,10.60
2022-09-18T16:17:39.577Z,10.60
2022-09-18T16:20:32.972Z,10.60
2022-09-18T16:23:19.873Z,10.60
2022-09-18T16:26:05.862Z,10.60
2022-09-18T16:28:36.708Z,10.50
2022-09-18T16:31:05.132Z,10.50
2022-09-18T16:33:34.778Z,10.50
2022-09-18T16:36:08.827Z,10.50
2022-09-18T16:38:37.070Z,10.50
2022-09-18T16:41:05.391Z,10.50
2022-09-18T16:43:33.434Z,10.50
2022-09-18T16:46:01.595Z,10.50
2022-09-18T16:48:30.030Z,10.40
2022-09-18T16:50:58.109Z,10.50
2022-09-18T16:53:27.619Z,10.50
2022-09-18T16:55:58.637Z,10.50
2022-09-18T16:58:28.854Z,10.50
2022-09-18T17:00:58.706Z,10.50
2022-09-18T17:03:27.899Z,10.60
2022-09-18T17:05:56.643Z,10.50
2022-09-18T17:08:24.714Z,10.50
2022-09-18T17:10:54.080Z,10.60
2022-09-18T17:13:22.737Z,10.60
2022-09-18T17:15:50.927Z,10.60
2022-09-18T17:18:18.968Z,10.50
2022-09-18T17:20:47.244Z,10.60
2022-09-18T17:23:15.325Z,10.50
2022-09-18T17:25:45.446Z,10.60
2022-09-18T17:28:18.218Z,10.60
2022-09-18T17:30:46.350Z,10.50
2022-09-18T17:33:16.579Z,10.50
2022-09-18T17:35:48.412Z,10.50
2022-09-18T17:38:17.311Z,10.50
2022-09-18T17:40:57.605Z,10.60
2022-09-18T17:43:26.923Z,10.50
2022-09-18T17:45:56.923Z,10.50
2022-09-18T17:48:25.987Z,10.50
2022-09-18T17:51:00.708Z,10.40
2022-09-18T17:53:29.323Z,10.50
2022-09-18T17:56:00.294Z,10.50
2022-09-18T17:58:31.173Z,10.40
2022-09-18T18:00:59.956Z,10.40
2022-09-18T18:03:28.891Z,10.40
2022-09-18T18:06:01.073Z,10.40
2022-09-18T18:08:31.606Z,10.40
2022-09-18T18:11:05.918Z,10.30
2022-09-18T18:13:36.863Z,10.40
2022-09-18T18:16:06.907Z,10.30
2022-09-18T18:18:37.133Z,10.30
2022-09-18T18:21:08.661Z,10.30
2022-09-18T18:23:38.369Z,10.30
2022-09-18T18:26:11.033Z,10.30
2022-09-18T18:28:41.970Z,10.30
2022-09-18T18:31:12.214Z,10.30
2022-09-18T18:33:42.519Z,10.30
2022-09-18T18:36:13.066Z,10.20
2022-09-18T18:38:41.670Z,10.20
2022-09-18T18:41:10.756Z,10.20
2022-09-18T18:43:41.224Z,10.20
2022-09-18T18:46:12.782Z,10.20
2022-09-18T18:48:41.381Z,10.20
2022-09-18T18:51:13.336Z,10.10
2022-09-18T18:53:42.171Z,10.10
2022-09-18T18:56:12.902Z,10.10
2022-09-18T18:58:43.927Z,10.00
2022-09-18T19:01:14.592Z,10.00
2022-09-18T19:03:44.104Z,10.00
2022-09-18T19:06:15.450Z,10.00
2022-09-18T19:08:46.246Z,10.00
2022-09-18T19:11:16.086Z,10.00
2022-09-18T19:13:50.220Z,10.00
2022-09-18T19:16:19.655Z,10.00
2022-09-18T19:18:53.838Z,9.90
2022-09-18T19:21:22.740Z,9.90
2022-09-18T19:23:52.438Z,9.80
2022-09-18T19:26:22.080Z,9.80
2022-09-18T19:28:55.256Z,9.80
2022-09-18T19:31:23.962Z,9.80
2022-09-18T19:33:52.878Z,9.70
2022-09-18T19:36:22.424Z,9.70
2022-09-18T19:38:54.668Z,9.70
2022-09-18T19:41:31.971Z,9.70
2022-09-18T19:44:04.107Z,9.60
2022-09-18T19:46:33.424Z,9.60
2022-09-18T19:49:01.645Z,9.60
2022-09-18T19:51:31.199Z,9.50
2022-09-18T19:53:59.213Z,9.50
2022-09-18T19:56:42.472Z,9.50
2022-09-18T19:59:13.259Z,9.50
2022-09-18T20:01:41.606Z,9.50
2022-09-18T20:04:10.112Z,9.50
2022-09-18T20:06:42.309Z,9.50
2022-09-18T20:09:10.554Z,9.50
2022-09-18T20:11:38.555Z,9.50
2022-09-18T20:14:06.748Z,9.50
2022-09-18T20:16:38.508Z,9.40
2022-09-18T20:19:07.601Z,9.40
2022-09-18T20:21:35.593Z,9.40
2022-09-18T20:24:03.593Z,9.40
2022-09-18T20:26:31.629Z,9.30
2022-09-18T20:28:59.767Z,9.20
2022-09-18T20:31:28.274Z,9.10
2022-09-18T20:33:59.167Z,8.50
2022-09-18T20:36:34.887Z,8.10
2022-09-18T20:39:03.632Z,7.90
2022-09-18T20:41:31.880Z,7.80
2022-09-18T20:44:03.116Z,7.80
2022-09-18T20:46:35.116Z,7.70
2022-09-18T20:49:11.566Z,7.70
2022-09-18T20:51:41.624Z,7.70
2022-09-18T20:54:14.746Z,7.70
2022-09-18T20:56:44.403Z,7.70
2022-09-18T20:59:13.597Z,7.70
2022-09-18T21:01:45.158Z,7.70
2022-09-18T21:04:19.216Z,7.70
2022-09-18T21:06:48.822Z,7.70
2022-09-18T21:09:18.430Z,7.60
2022-09-18T21:11:46.453Z,7.70
2022-09-18T21:14:16.428Z,7.60
2022-09-18T21:16:44.836Z,7.50
2022-09-18T21:19:16.493Z,7.50
2022-09-18T21:21:44.789Z,7.50
2022-09-18T21:24:13.754Z,7.50
2022-09-18T21:26:44.437Z,7.40
2022-09-18T21:29:14.924Z,7.40
2022-09-18T21:31:44.226Z,7.40
2022-09-18T21:34:15.856Z,7.40
2022-09-18T21:36:45.113Z,7.40
2022-09-18T21:39:15.064Z,7.40
2022-09-18T21:41:47.616Z,7.40
2022-09-18T21:44:17.308Z,7.50
2022-09-18T21:46:46.209Z,7.50
2022-09-18T21:49:16.284Z,7.50
2022-09-18T21:51:47.727Z,7.50
2022-09-18T21:54:19.491Z,7.40
2022-09-18T21:56:51.354Z,7.40
2022-09-18T21:59:20.057Z,7.30
2022-09-18T22:01:48.882Z,7.30
2022-09-18T22:04:18.827Z,7.30
2022-09-18T22:06:47.877Z,7.30
2022-09-18T22:09:17.855Z,7.30
2022-09-18T22:11:47.877Z,7.40
2022-09-18T22:14:17.809Z,7.40
2022-09-18T22:16:48.117Z,7.40
2022-09-18T22:19:20.165Z,7.40
2022-09-18T22:21:51.459Z,7.50
2022-09-18T22:24:21.668Z,7.60
2022-09-18T22:26:54.706Z,7.40
2022-09-18T22:29:24.936Z,7.40
2022-09-18T22:31:54.059Z,7.30
2022-09-18T22:34:26.329Z,7.30
2022-09-18T22:36:55.119Z,7.40
2022-09-18T22:39:24.088Z,7.30
2022-09-18T22:41:52.430Z,7.30
2022-09-18T22:44:22.784Z,7.30
2022-09-18T22:46:54.546Z,7.30
2022-09-18T22:49:24.492Z,7.30
2022-09-18T22:51:53.045Z,7.20
2022-09-18T22:54:25.272Z,7.20
2022-09-18T22:56:56.898Z,7.20
2022-09-18T22:59:29.835Z,7.20
2022-09-18T23:01:59.937Z,7.20
2022-09-18T23:04:31.681Z,7.20
2022-09-18T23:07:00.245Z,7.30
2022-09-18T23:09:29.166Z,7.20
2022-09-18T23:12:02.567Z,7.20
2022-09-18T23:14:34.779Z,7.20
2022-09-18T23:17:14.023Z,7.10
2022-09-18T23:19:49.143Z,7.00
2022-09-18T23:22:19.514Z,6.80
2022-09-18T23:24:54.177Z,6.70
2022-09-18T23:27:25.415Z,6.60
2022-09-18T23:29:59.648Z,6.60
2022-09-18T23:32:36.824Z,6.60
2022-09-18T23:35:10.405Z,6.60
2022-09-18T23:37:38.412Z,6.60
2022-09-18T23:40:07.775Z,6.60
2022-09-18T23:42:35.816Z,6.50
2022-09-18T23:45:03.951Z,6.50
2022-09-18T23:47:34.087Z,6.40
2022-09-18T23:50:02.134Z,6.40
2022-09-18T23:52:31.477Z,6.40
2022-09-18T23:54:59.581Z,6.30
2022-09-18T23:57:30.572Z,6.30
2022-09-18T23:59:59.394Z,6.20
